createdAt,value
2019-01-14T00:03:25.064Z,96.50
2019-01-14T00:07:31.279Z,96.40
2019-01-14T00:11:43.128Z,96.30
2019-01-14T00:15:49.447Z,96.10
2019-01-14T00:19:55.983Z,96.30
2019-01-14T00:24:02.276Z,96.10
2019-01-14T00:28:09.853Z,96.10
2019-01-14T00:32:16.095Z,96.30
2019-01-14T00:36:22.787Z,96.20
2019-01-14T00:40:29.142Z,97.20
2019-01-14T00:44:37.832Z,96.30
2019-01-14T00:48:44.335Z,96.60
2019-01-14T00:52:51.020Z,96.70
2019-01-14T00:56:57.324Z,96.80
2019-01-14T01:01:05.528Z,96.80
2019-01-14T01:05:11.848Z,96.80
2019-01-14T01:09:18.716Z,97.00
2019-01-14T01:13:25.951Z,97.10
2019-01-14T01:17:33.469Z,97.00
2019-01-14T01:21:39.793Z,97.50
2019-01-14T01:25:46.480Z,97.80
2019-01-14T01:29:53.734Z,97.50
2019-01-14T01:34:01.033Z,97.30
2019-01-14T01:38:07.365Z,97.20
2019-01-14T01:42:14.026Z,97.30
2019-01-14T01:46:20.346Z,97.10
2019-01-14T01:50:28.156Z,97.40
2019-01-14T01:54:34.463Z,97.10
2019-01-14T01:58:41.192Z,96.90
2019-01-14T02:02:47.582Z,97.00
2019-01-14T02:06:55.527Z,96.90
2019-01-14T02:11:01.820Z,96.90
2019-01-14T02:15:10.995Z,96.80
2019-01-14T02:19:17.351Z,96.70
2019-01-14T02:23:24.176Z,97.10
2019-01-14T02:27:30.540Z,97.20
2019-01-14T02:31:37.079Z,97.60
2019-01-14T02:35:43.405Z,97.30
2019-01-14T02:39:51.018Z,97.10
2019-01-14T02:43:57.315Z,96.90
2019-01-14T02:48:04.851Z,97.20
2019-01-14T02:52:11.200Z,97.20
2019-01-14T02:56:19.701Z,97.30
2019-01-14T03:00:27.659Z,97.00
2019-01-14T03:04:34.354Z,97.10
2019-01-14T03:08:40.646Z,97.10
2019-01-14T03:12:47.934Z,97.20
2019-01-14T03:16:55.584Z,97.00
2019-01-14T03:21:02.427Z,97.10
2019-01-14T03:25:09.330Z,97.20
2019-01-14T03:29:16.934Z,97.10
2019-01-14T03:33:23.306Z,97.10
2019-01-14T03:37:29.943Z,97.00
2019-01-14T03:41:36.203Z,97.00
2019-01-14T03:45:43.441Z,96.90
2019-01-14T03:49:49.778Z,96.50
2019-01-14T03:53:59.532Z,96.30
2019-01-14T03:58:05.861Z,96.30
2019-01-14T04:02:13.909Z,96.30
2019-01-14T04:06:20.201Z,96.20
2019-01-14T04:10:26.806Z,96.40
2019-01-14T04:14:33.077Z,96.60
2019-01-14T04:18:41.176Z,96.60
2019-01-14T04:22:47.974Z,96.90
2019-01-14T04:26:54.826Z,97.40
2019-01-14T04:31:01.102Z,97.30
2019-01-14T04:35:08.761Z,97.70
2019-01-14T04:39:15.267Z,97.10
2019-01-14T04:43:21.746Z,97.50
2019-01-14T04:47:28.023Z,97.90
2019-01-14T04:51:34.701Z,98.20
2019-01-14T04:55:40.978Z,98.30
2019-01-14T04:59:47.456Z,98.50
2019-01-14T05:03:53.790Z,98.80
2019-01-14T05:08:03.092Z,98.70
2019-01-14T05:12:09.380Z,99.10
2019-01-14T05:16:15.795Z,99.30
2019-01-14T05:20:25.721Z,99.40
2019-01-14T05:24:32.690Z,99.30
2019-01-14T05:28:38.991Z,99.10
2019-01-14T05:32:45.647Z,99.40
2019-01-14T05:36:51.946Z,99.50
2019-01-14T05:41:01.725Z,99.40
2019-01-14T05:45:08.188Z,99.40
2019-01-14T05:49:14.732Z,99.50
2019-01-14T05:53:21.137Z,99.30
2019-01-14T05:57:28.253Z,98.60
2019-01-14T06:01:34.668Z,98.50
2019-01-14T06:05:41.456Z,98.30
2019-01-14T06:09:47.747Z,98.20
2019-01-14T06:13:57.264Z,97.90
2019-01-14T06:18:03.721Z,97.70
2019-01-14T06:22:11.428Z,97.90
2019-01-14T06:26:17.669Z,97.80
2019-01-14T06:30:26.280Z,98.00
2019-01-14T06:34:32.572Z,97.60
2019-01-14T06:38:39.511Z,97.40
2019-01-14T06:42:45.838Z,97.40
2019-01-14T06:46:52.844Z,97.10
2019-01-14T06:50:59.225Z,97.20
2019-01-14T06:55:07.005Z,96.90
2019-01-14T06:59:13.285Z,96.80
2019-01-14T07:03:20.252Z,96.80
2019-01-14T07:07:28.248Z,96.70
2019-01-14T07:11:35.314Z,96.50
2019-01-14T07:15:41.605Z,96.80
2019-01-14T07:19:48.620Z,96.80
2019-01-14T07:23:57.227Z,96.90
2019-01-14T07:28:03.704Z,97.10
2019-01-14T07:32:09.996Z,97.30
2019-01-14T07:36:16.682Z,97.50
2019-01-14T07:40:22.965Z,98.10
2019-01-14T07:44:29.490Z,97.60
2019-01-14T07:48:35.762Z,97.60
2019-01-14T07:52:43.366Z,97.20
2019-01-14T07:56:49.704Z,96.10
2019-01-14T08:00:58.892Z,95.90
2019-01-14T08:05:05.431Z,94.30
2019-01-14T08:09:15.394Z,94.10
2019-01-14T08:13:21.661Z,93.60
2019-01-14T08:17:28.191Z,93.70
2019-01-14T08:21:34.559Z,93.80
2019-01-14T08:25:43.840Z,93.80
2019-01-14T08:29:50.241Z,94.00
2019-01-14T08:33:56.718Z,94.00
2019-01-14T08:38:02.964Z,93.40
2019-01-14T08:42:12.182Z,93.20
2019-01-14T08:46:18.645Z,93.20
2019-01-14T08:50:25.237Z,92.50
2019-01-14T08:54:31.516Z,92.30
2019-01-14T08:58:39.265Z,91.30
2019-01-14T09:02:48.718Z,92.00
2019-01-14T09:06:55.367Z,91.80
2019-01-14T09:11:01.672Z,91.70
2019-01-14T09:15:11.284Z,91.50
2019-01-14T09:19:20.552Z,91.40
2019-01-14T09:23:26.981Z,91.50
2019-01-14T09:27:35.566Z,90.50
2019-01-14T09:31:43.357Z,90.50
2019-01-14T09:35:49.750Z,89.70
2019-01-14T09:39:56.514Z,89.10
2019-01-14T09:44:02.970Z,90.10
2019-01-14T09:48:09.875Z,88.40
2019-01-14T09:52:17.231Z,86.70
2019-01-14T09:56:23.991Z,86.00
2019-01-14T10:00:30.220Z,85.30
2019-01-14T10:04:39.641Z,85.20
2019-01-14T10:08:46.526Z,82.40
2019-01-14T10:12:55.957Z,82.90
2019-01-14T10:17:02.349Z,85.10
2019-01-14T10:21:09.508Z,85.00
2019-01-14T10:25:15.922Z,87.10
2019-01-14T10:29:24.011Z,84.30
2019-01-14T10:33:30.340Z,84.50
2019-01-14T10:37:37.181Z,83.50
2019-01-14T10:41:43.586Z,82.40
2019-01-14T10:45:50.872Z,82.80
2019-01-14T10:49:57.138Z,82.80
2019-01-14T10:54:06.250Z,81.30
2019-01-14T10:58:12.579Z,79.30
2019-01-14T11:02:19.338Z,75.30
2019-01-14T11:06:28.482Z,73.70
2019-01-14T11:10:37.992Z,73.60
2019-01-14T11:14:44.335Z,75.30
2019-01-14T11:18:53.467Z,74.80
2019-01-14T11:23:00.757Z,71.30
2019-01-14T11:27:07.819Z,71.10
2019-01-14T11:31:14.428Z,70.30
2019-01-14T11:35:21.112Z,67.20
2019-01-14T11:39:29.696Z,70.30
2019-01-14T11:43:37.655Z,68.40
2019-01-14T11:47:44.037Z,68.00
2019-01-14T11:51:51.725Z,66.30
2019-01-14T11:55:58.020Z,63.60
2019-01-14T12:00:07.018Z,64.50
2019-01-14T12:04:13.421Z,64.90
2019-01-14T12:08:21.102Z,64.60
2019-01-14T12:12:29.696Z,61.80
2019-01-14T12:16:37.467Z,62.20
2019-01-14T12:20:43.802Z,59.20
2019-01-14T12:24:52.576Z,58.90
2019-01-14T12:28:58.876Z,61.40
2019-01-14T12:33:07.726Z,63.10
2019-01-14T12:37:14.146Z,63.50
2019-01-14T12:41:20.786Z,62.60
2019-01-14T12:45:27.249Z,62.80
2019-01-14T12:49:35.243Z,63.30
2019-01-14T12:53:41.520Z,64.30
2019-01-14T12:57:47.985Z,62.60
2019-01-14T13:01:54.373Z,62.80
2019-01-14T13:06:01.896Z,63.70
2019-01-14T13:10:09.128Z,63.40
2019-01-14T13:14:15.762Z,63.70
2019-01-14T13:18:22.139Z,65.10
2019-01-14T13:22:29.004Z,64.80
2019-01-14T13:26:37.494Z,66.10
2019-01-14T13:30:44.029Z,66.60
2019-01-14T13:34:50.892Z,67.70
2019-01-14T13:38:58.455Z,69.30
2019-01-14T13:43:04.892Z,69.60
2019-01-14T13:47:11.474Z,69.80
2019-01-14T13:51:17.787Z,69.30
2019-01-14T13:55:25.727Z,69.60
2019-01-14T13:59:32.109Z,69.60
2019-01-14T14:03:40.471Z,70.60
2019-01-14T14:07:46.836Z,70.80
2019-01-14T14:12:02.225Z,74.90
2019-01-14T14:16:08.711Z,75.70
2019-01-14T14:20:17.325Z,79.80
2019-01-14T14:24:23.841Z,80.20
2019-01-14T14:28:31.330Z,84.60
2019-01-14T14:32:38.855Z,93.80
2019-01-14T14:36:47.073Z,95.40
2019-01-14T14:40:56.321Z,96.20
2019-01-14T14:45:05.452Z,95.00
2019-01-14T14:49:11.860Z,94.10
2019-01-14T14:53:18.320Z,93.30
2019-01-14T14:57:24.603Z,92.30
2019-01-14T15:01:32.292Z,92.00
2019-01-14T15:05:38.686Z,92.20
2019-01-14T15:09:45.528Z,92.60
2019-01-14T15:13:51.780Z,93.20
2019-01-14T15:18:02.904Z,93.00
2019-01-14T15:22:07.375Z,92.70
2019-01-14T15:26:13.999Z,91.90
2019-01-14T15:30:25.884Z,92.10
2019-01-14T15:34:33.428Z,92.40
2019-01-14T15:38:40.677Z,92.50
2019-01-14T15:42:48.927Z,92.80
2019-01-14T15:46:55.167Z,92.60
2019-01-14T15:51:02.468Z,92.00
2019-01-14T15:55:11.390Z,91.70
2019-01-14T15:59:18.248Z,90.80
2019-01-14T16:03:24.549Z,90.20
2019-01-14T16:07:32.085Z,90.00
2019-01-14T16:11:38.488Z,90.10
2019-01-14T16:15:46.982Z,90.30
2019-01-14T16:19:56.222Z,90.30
2019-01-14T16:24:03.101Z,90.80
2019-01-14T16:28:10.574Z,91.10
2019-01-14T16:32:17.392Z,91.60
2019-01-14T16:36:23.660Z,92.30
2019-01-14T16:40:31.338Z,91.80
2019-01-14T16:44:37.704Z,91.80
2019-01-14T16:48:44.713Z,91.90
2019-01-14T16:52:51.104Z,92.20
2019-01-14T16:56:59.726Z,92.70
2019-01-14T17:01:06.154Z,93.00
2019-01-14T17:05:16.115Z,92.90
2019-01-14T17:09:22.675Z,92.90
2019-01-14T17:13:30.415Z,93.00
2019-01-14T17:17:36.828Z,92.30
2019-01-14T17:21:43.627Z,92.70
2019-01-14T17:25:50.144Z,93.10
2019-01-14T17:29:56.770Z,93.20
2019-01-14T17:34:03.057Z,93.10
2019-01-14T17:38:09.736Z,94.60
2019-01-14T17:42:20.387Z,94.30
2019-01-14T17:46:27.523Z,93.30
2019-01-14T17:50:33.891Z,93.10
2019-01-14T17:54:40.774Z,93.00
2019-01-14T17:58:47.086Z,93.00
2019-01-14T18:02:55.907Z,92.60
2019-01-14T18:07:02.504Z,92.30
2019-01-14T18:11:10.232Z,91.80
2019-01-14T18:15:16.529Z,91.30
2019-01-14T18:19:23.974Z,91.40
2019-01-14T18:23:30.264Z,91.10
2019-01-14T18:27:36.843Z,91.00
2019-01-14T18:31:44.103Z,90.80
2019-01-14T18:35:51.807Z,90.70
2019-01-14T18:40:00.999Z,91.00
2019-01-14T18:44:09.716Z,90.90
2019-01-14T18:48:16.128Z,91.10
2019-01-14T18:52:24.227Z,90.80
2019-01-14T18:56:30.913Z,91.00
2019-01-14T19:00:37.650Z,91.30
2019-01-14T19:04:44.022Z,91.40
2019-01-14T19:08:51.041Z,91.30
2019-01-14T19:12:57.524Z,91.10
2019-01-14T19:17:04.411Z,91.30
2019-01-14T19:21:10.727Z,91.20
2019-01-14T19:25:18.103Z,90.80
2019-01-14T19:29:25.042Z,90.70
2019-01-14T19:33:31.697Z,90.70
2019-01-14T19:37:39.646Z,90.90
2019-01-14T19:41:47.007Z,90.50
2019-01-14T19:45:54.032Z,90.30
2019-01-14T19:50:02.326Z,90.40
2019-01-14T19:54:09.718Z,90.60
2019-01-14T19:58:19.415Z,90.80
2019-01-14T20:02:25.795Z,90.80
2019-01-14T20:06:32.698Z,90.70
2019-01-14T20:10:39.039Z,90.50
2019-01-14T20:14:46.040Z,90.60
2019-01-14T20:18:52.508Z,90.80
2019-01-14T20:22:59.116Z,90.80
2019-01-14T20:27:05.523Z,90.60
2019-01-14T20:31:12.515Z,90.40
2019-01-14T20:35:18.872Z,90.50
2019-01-14T20:39:26.681Z,90.50
2019-01-14T20:43:32.979Z,90.50
2019-01-14T20:47:41.509Z,90.10
2019-01-14T20:51:47.818Z,90.20
2019-01-14T20:55:54.322Z,89.90
2019-01-14T21:00:00.625Z,89.60
2019-01-14T21:04:11.841Z,89.80
2019-01-14T21:08:18.291Z,89.50
2019-01-14T21:12:26.322Z,89.80
2019-01-14T21:16:35.632Z,90.00
2019-01-14T21:20:43.847Z,89.90
2019-01-14T21:24:50.227Z,89.40
2019-01-14T21:28:56.661Z,89.20
2019-01-14T21:33:03.157Z,89.80
2019-01-14T21:37:13.825Z,89.30
2019-01-14T21:41:20.186Z,89.80
2019-01-14T21:45:26.674Z,90.00
2019-01-14T21:49:33.128Z,90.00
2019-01-14T21:53:40.125Z,90.10
2019-01-14T21:57:46.525Z,90.30
2019-01-14T22:01:53.038Z,90.80
2019-01-14T22:05:59.404Z,90.70
2019-01-14T22:10:10.723Z,90.60
2019-01-14T22:14:18.996Z,91.00
2019-01-14T22:18:25.369Z,91.10
2019-01-14T22:22:31.657Z,91.10
2019-01-14T22:26:38.772Z,91.20
2019-01-14T22:30:45.061Z,91.40
2019-01-14T22:34:51.590Z,91.00
2019-01-14T22:38:57.906Z,90.70
2019-01-14T22:43:04.402Z,90.30
2019-01-14T22:47:10.783Z,89.90
2019-01-14T22:51:18.591Z,90.20
2019-01-14T22:55:24.963Z,89.90
2019-01-14T22:59:32.025Z,88.10
2019-01-14T23:03:39.584Z,88.00
2019-01-14T23:07:45.969Z,90.80
2019-01-14T23:11:53.174Z,88.10
2019-01-14T23:16:01.556Z,88.00
2019-01-14T23:20:09.973Z,88.00
2019-01-14T23:24:18.279Z,88.30
2019-01-14T23:28:24.608Z,88.40
2019-01-14T23:32:32.552Z,88.80
2019-01-14T23:36:38.883Z,89.30
2019-01-14T23:40:45.422Z,89.30
2019-01-14T23:44:53.480Z,89.00
2019-01-14T23:49:00.628Z,88.90
2019-01-14T23:53:08.618Z,89.70
2019-01-14T23:57:15.106Z,89.90
